createdAt,value
2022-11-08T04:02:38.667Z,11.00
2022-11-08T04:03:38.522Z,16.50
2022-11-08T04:04:38.524Z,14.30
2022-11-08T04:05:38.489Z,21.80
2022-11-08T04:06:39.615Z,19.90
2022-11-08T04:07:39.609Z,18.40
2022-11-08T04:08:39.624Z,19.20
2022-11-08T04:09:39.657Z,18.10
2022-11-08T04:10:39.596Z,21.10
2022-11-08T04:11:39.616Z,20.00
2022-11-08T04:12:39.610Z,22.00
2022-11-08T04:13:39.588Z,19.20
2022-11-08T04:14:39.617Z,24.70
2022-11-08T04:15:39.565Z,20.00
2022-11-08T04:16:39.674Z,19.10
2022-11-08T04:17:39.557Z,25.20
2022-11-08T04:18:39.529Z,23.90
2022-11-08T04:19:39.545Z,27.90
2022-11-08T04:20:39.508Z,29.70
2022-11-08T04:21:39.551Z,25.90
2022-11-08T04:22:39.546Z,21.80
2022-11-08T04:23:39.512Z,22.30
2022-11-08T04:24:39.513Z,19.30
2022-11-08T04:25:39.473Z,21.50
2022-11-08T04:26:39.511Z,18.70
2022-11-08T04:27:39.485Z,15.70
2022-11-08T04:28:39.462Z,23.30
2022-11-08T04:29:39.471Z,38.00
2022-11-08T04:30:39.468Z,38.30
2022-11-08T04:31:39.426Z,46.30
2022-11-08T04:32:39.443Z,51.10
2022-11-08T04:33:39.423Z,36.50
2022-11-08T04:34:39.551Z,41.30
2022-11-08T04:35:39.429Z,26.90
2022-11-08T04:36:39.391Z,23.50
2022-11-08T04:37:39.422Z,41.30
2022-11-08T04:38:39.386Z,54.90
2022-11-08T04:39:39.400Z,72.50
2022-11-08T04:40:39.414Z,56.70
2022-11-08T04:41:39.391Z,59.20
2022-11-08T04:42:39.365Z,86.20
2022-11-08T04:43:39.336Z,78.20
2022-11-08T04:44:39.331Z,70.90
2022-11-08T04:45:39.351Z,84.80
2022-11-08T04:46:39.340Z,68.70
2022-11-08T04:47:43.142Z,61.60
2022-11-08T04:48:41.305Z,54.80
2022-11-08T04:49:39.311Z,46.40
2022-11-08T04:50:39.288Z,46.20
2022-11-08T04:51:40.253Z,50.60
2022-11-08T04:52:39.270Z,34.10
2022-11-08T04:53:39.279Z,30.10
2022-11-08T04:54:39.245Z,25.80
2022-11-08T04:55:39.236Z,28.80
2022-11-08T04:56:39.249Z,23.10
2022-11-08T04:57:39.265Z,21.40
2022-11-08T04:58:39.249Z,17.40
2022-11-08T04:59:39.222Z,18.20
2022-11-08T05:00:39.200Z,22.00
2022-11-08T05:01:39.431Z,17.20
2022-11-08T05:02:39.275Z,18.50
2022-11-08T05:03:39.177Z,22.90
2022-11-08T05:04:39.196Z,18.80
2022-11-08T05:05:39.180Z,23.20
2022-11-08T05:06:39.287Z,23.70
2022-11-08T05:07:39.186Z,18.20
2022-11-08T05:08:39.183Z,20.90
2022-11-08T05:09:39.123Z,20.80
2022-11-08T05:10:39.415Z,22.50
2022-11-08T05:11:39.104Z,29.30
2022-11-08T05:12:39.149Z,20.00
2022-11-08T05:13:39.131Z,17.80
2022-11-08T05:14:39.110Z,18.30
2022-11-08T05:15:39.085Z,19.20
2022-11-08T05:16:39.072Z,21.00
2022-11-08T05:17:39.078Z,22.90
2022-11-08T05:18:41.738Z,21.10
2022-11-08T05:19:39.070Z,21.20
2022-11-08T05:20:39.067Z,18.80
2022-11-08T05:21:39.054Z,20.60
2022-11-08T05:22:39.033Z,17.70
2022-11-08T05:23:39.025Z,24.90
2022-11-08T05:24:39.033Z,24.00
2022-11-08T05:25:39.061Z,19.30
2022-11-08T05:26:39.034Z,23.90
2022-11-08T05:27:39.004Z,25.50
2022-11-08T05:28:38.982Z,21.00
2022-11-08T05:29:42.178Z,15.00
2022-11-08T05:30:39.979Z,17.50
2022-11-08T05:31:38.966Z,18.90
2022-11-08T05:32:39.010Z,16.60
2022-11-08T05:33:38.956Z,13.20
2022-11-08T05:34:38.962Z,12.20
2022-11-08T05:35:38.946Z,13.10
2022-11-08T05:36:38.960Z,17.50
2022-11-08T05:37:38.906Z,23.00
2022-11-08T05:38:40.023Z,18.10
2022-11-08T05:39:38.940Z,21.60
2022-11-08T05:40:38.911Z,18.30
2022-11-08T05:41:38.898Z,19.60
2022-11-08T05:42:38.896Z,17.20
2022-11-08T05:43:38.917Z,14.00
2022-11-08T05:44:38.909Z,14.50
2022-11-08T05:45:38.871Z,15.80
2022-11-08T05:46:38.870Z,16.90
2022-11-08T05:47:38.860Z,19.40
2022-11-08T05:48:38.854Z,16.60
2022-11-08T05:49:38.905Z,13.00
2022-11-08T05:50:38.813Z,21.00
2022-11-08T05:51:38.847Z,21.50
2022-11-08T05:52:38.819Z,22.10
2022-11-08T05:53:38.808Z,40.20
2022-11-08T05:54:38.824Z,35.40
2022-11-08T05:55:38.784Z,44.30
2022-11-08T05:56:38.798Z,33.40
2022-11-08T05:57:38.777Z,33.60
2022-11-08T05:58:38.799Z,27.50
2022-11-08T05:59:38.793Z,28.50
2022-11-08T06:00:38.781Z,42.20
2022-11-08T06:01:38.808Z,32.70
2022-11-08T06:02:38.792Z,29.30
2022-11-08T06:03:38.787Z,41.30
2022-11-08T06:04:38.750Z,45.00
2022-11-08T06:05:38.712Z,55.90
2022-11-08T06:06:38.713Z,103.50
2022-11-08T06:07:38.707Z,94.30
2022-11-08T06:08:38.700Z,122.10
2022-11-08T06:09:38.704Z,81.70
2022-11-08T06:10:38.683Z,96.30
2022-11-08T06:11:38.689Z,89.10
2022-11-08T06:12:38.715Z,86.80
2022-11-08T06:13:38.649Z,64.30
2022-11-08T06:14:38.705Z,239.30
2022-11-08T06:15:38.662Z,161.70
2022-11-08T06:16:38.649Z,61.50
2022-11-08T06:17:38.645Z,83.70
2022-11-08T06:18:38.662Z,113.60
2022-11-08T06:19:38.624Z,98.10
2022-11-08T06:20:38.632Z,80.50
2022-11-08T06:21:38.619Z,53.30
2022-11-08T06:22:38.581Z,120.40
2022-11-08T06:23:38.575Z,92.90
2022-11-08T06:24:38.572Z,62.70
2022-11-08T06:25:38.564Z,45.50
2022-11-08T06:26:38.587Z,44.30
2022-11-08T06:27:38.569Z,48.80
2022-11-08T06:28:38.557Z,38.80
2022-11-08T06:29:38.610Z,34.40
2022-11-08T06:30:38.529Z,30.90
2022-11-08T06:31:42.885Z,31.00
2022-11-08T06:32:39.496Z,32.80
2022-11-08T06:33:39.555Z,37.70
2022-11-08T06:34:38.493Z,51.40
2022-11-08T06:35:38.501Z,51.00
2022-11-08T06:36:38.509Z,66.90
2022-11-08T06:37:39.512Z,89.40
2022-11-08T06:38:38.494Z,124.40
2022-11-08T06:39:38.456Z,114.50
2022-11-08T06:40:38.482Z,65.90
2022-11-08T06:41:38.505Z,40.30
2022-11-08T06:42:39.240Z,36.70
2022-11-08T06:43:38.437Z,38.60
2022-11-08T06:44:38.421Z,37.00
2022-11-08T06:45:38.423Z,84.40
2022-11-08T06:46:38.416Z,101.50
2022-11-08T06:47:38.402Z,135.30
2022-11-08T06:48:38.457Z,99.50
2022-11-08T06:49:38.420Z,63.90
2022-11-08T06:50:38.373Z,76.70
2022-11-08T06:51:38.404Z,99.50
2022-11-08T06:52:38.360Z,123.70
2022-11-08T06:53:38.468Z,352.50
2022-11-08T06:54:38.357Z,265.20
2022-11-08T06:55:38.356Z,483.60
2022-11-08T06:56:38.336Z,607.80
2022-11-08T06:57:38.347Z,358.10
2022-11-08T06:58:38.336Z,408.70
2022-11-08T06:59:38.375Z,301.40
2022-11-08T07:00:38.342Z,710.70
2022-11-08T07:01:42.013Z,549.10
2022-11-08T07:02:40.419Z,384.00
2022-11-08T07:03:38.320Z,618.80
2022-11-08T07:04:38.336Z,560.40
2022-11-08T07:05:38.344Z,432.60
2022-11-08T07:06:38.303Z,275.90
2022-11-08T07:07:38.251Z,260.40
2022-11-08T07:08:38.290Z,370.20
2022-11-08T07:09:38.310Z,362.80
2022-11-08T07:10:38.265Z,362.50
2022-11-08T07:11:38.247Z,498.80
2022-11-08T07:12:38.216Z,137.60
2022-11-08T07:13:38.247Z,358.10
2022-11-08T07:14:38.237Z,254.20
2022-11-08T07:15:38.232Z,96.70
2022-11-08T07:16:38.201Z,220.30
2022-11-08T07:17:38.954Z,468.60
2022-11-08T07:18:39.411Z,817.30
2022-11-08T07:19:38.180Z,816.30
2022-11-08T07:20:38.243Z,552.20
2022-11-08T07:21:38.182Z,269.70
2022-11-08T07:22:38.190Z,342.80
2022-11-08T07:23:38.215Z,274.60
2022-11-08T07:24:38.172Z,313.90
2022-11-08T07:25:38.129Z,108.30
2022-11-08T07:26:38.282Z,78.30
2022-11-08T07:27:38.137Z,56.40
2022-11-08T07:28:38.143Z,36.50
2022-11-08T07:30:10.007Z,36.60
2022-11-08T07:30:38.128Z,164.60
2022-11-08T07:31:38.103Z,39.90
2022-11-08T07:32:38.064Z,40.30
2022-11-08T07:33:38.075Z,71.90
2022-11-08T07:34:38.094Z,156.20
2022-11-08T07:35:38.065Z,37.00
2022-11-08T07:36:38.070Z,209.70
2022-11-08T07:37:38.032Z,65.00
2022-11-08T07:38:38.042Z,55.70
2022-11-08T07:39:38.041Z,126.20
2022-11-08T07:40:38.012Z,100.20
2022-11-08T07:41:38.012Z,207.90
2022-11-08T07:43:04.838Z,86.20
2022-11-08T07:43:40.028Z,183.70
2022-11-08T07:44:37.994Z,189.00
2022-11-08T07:45:37.981Z,209.80
2022-11-08T07:46:37.968Z,548.80
2022-11-08T07:47:37.959Z,91.90
2022-11-08T07:48:37.989Z,625.50
2022-11-08T07:49:37.954Z,1051.40
2022-11-08T07:50:37.930Z,1135.20
2022-11-08T07:51:37.921Z,148.70
2022-11-08T07:52:37.920Z,1702.60
2022-11-08T07:53:38.774Z,529.50
2022-11-08T07:54:37.940Z,471.90
2022-11-08T07:55:37.894Z,466.20
2022-11-08T07:56:37.895Z,385.80
2022-11-08T07:57:37.875Z,141.40
2022-11-08T07:58:37.864Z,285.60
2022-11-08T07:59:37.917Z,154.00
2022-11-08T08:00:37.884Z,102.70
2022-11-08T08:01:37.913Z,1175.90
2022-11-08T08:02:37.922Z,157.90
2022-11-08T08:03:37.864Z,1446.60
2022-11-08T08:04:37.835Z,227.50
2022-11-08T08:05:37.834Z,83.90
2022-11-08T08:06:37.836Z,188.80
2022-11-08T08:07:37.814Z,29.60
2022-11-08T08:08:37.815Z,49.30
2022-11-08T08:09:37.800Z,34.00
2022-11-08T08:10:37.782Z,49.00
2022-11-08T08:11:37.810Z,104.30
2022-11-08T08:12:37.853Z,289.20
2022-11-08T08:13:37.769Z,123.00
2022-11-08T08:15:09.697Z,69.10
2022-11-08T08:15:37.786Z,113.90
2022-11-08T08:16:38.340Z,35.50
2022-11-08T08:17:37.753Z,23.80
2022-11-08T08:18:37.749Z,40.70
2022-11-08T08:19:37.712Z,13.40
2022-11-08T08:20:37.703Z,4.20
2022-11-08T08:21:38.721Z,3.60
2022-11-08T08:22:37.735Z,4.80
2022-11-08T08:23:37.689Z,3.80
2022-11-08T08:24:37.693Z,3.30
2022-11-08T08:25:37.697Z,3.80
2022-11-08T08:26:37.689Z,3.90
2022-11-08T08:27:37.645Z,4.80
2022-11-08T08:28:37.667Z,5.20
2022-11-08T08:29:37.664Z,5.20
2022-11-08T08:30:37.640Z,4.60
2022-11-08T08:31:37.645Z,8.10
2022-11-08T08:32:37.670Z,66.10
2022-11-08T08:33:38.137Z,33.90
2022-11-08T08:34:37.603Z,59.40
2022-11-08T08:35:37.607Z,52.10
2022-11-08T08:36:37.569Z,28.90
2022-11-08T08:37:37.604Z,106.50
2022-11-08T08:38:43.058Z,130.20
2022-11-08T08:39:39.552Z,41.20
2022-11-08T08:40:37.542Z,47.80
2022-11-08T08:41:37.553Z,44.20
2022-11-08T08:42:37.550Z,40.20
2022-11-08T08:43:37.533Z,24.30
2022-11-08T08:44:37.555Z,9.20
2022-11-08T08:45:37.534Z,8.40
2022-11-08T08:46:37.558Z,5.90
2022-11-08T08:47:37.550Z,6.80
2022-11-08T08:48:37.495Z,6.60
2022-11-08T08:49:37.531Z,4.10
2022-11-08T08:50:37.515Z,9.20
2022-11-08T08:51:37.463Z,5.50
2022-11-08T08:52:37.456Z,5.70
2022-11-08T08:53:37.460Z,5.90
2022-11-08T08:54:37.486Z,4.60
2022-11-08T08:55:37.472Z,3.80
2022-11-08T08:56:37.448Z,4.70
2022-11-08T08:57:37.437Z,4.40
2022-11-08T08:58:37.435Z,3.60
2022-11-08T09:01:39.447Z,3.90
2022-11-08T09:02:39.948Z,2.20
2022-11-08T09:03:39.408Z,2.90
2022-11-08T09:04:37.393Z,3.00
2022-11-08T09:05:37.376Z,4.30
2022-11-08T09:06:37.434Z,4.50
2022-11-08T09:08:09.283Z,3.50
2022-11-08T09:08:37.334Z,2.70
2022-11-08T09:09:37.358Z,4.60
2022-11-08T09:10:37.332Z,2.50
2022-11-08T09:11:37.334Z,4.70
2022-11-08T09:12:37.396Z,4.80
2022-11-08T09:13:37.299Z,4.40
2022-11-08T09:14:37.276Z,6.40
2022-11-08T09:15:38.261Z,4.90
2022-11-08T09:16:37.324Z,4.10
2022-11-08T09:17:37.276Z,5.10
2022-11-08T09:18:37.283Z,3.50
2022-11-08T09:19:37.243Z,4.10
2022-11-08T09:20:37.229Z,3.90
2022-11-08T09:21:37.263Z,3.90
2022-11-08T09:22:37.222Z,2.60
2022-11-08T09:23:37.248Z,6.60
2022-11-08T09:24:37.273Z,4.10
2022-11-08T09:25:37.217Z,3.30
2022-11-08T09:26:37.201Z,3.80
2022-11-08T09:27:37.203Z,5.60
2022-11-08T09:28:37.203Z,5.10
2022-11-08T09:29:37.177Z,5.00
2022-11-08T09:30:37.172Z,5.40
2022-11-08T09:31:37.157Z,4.40
2022-11-08T09:32:59.762Z,3.90
2022-11-08T09:33:39.255Z,5.00
2022-11-08T09:34:37.145Z,3.70
2022-11-08T09:35:37.145Z,4.50
2022-11-08T09:36:37.115Z,4.60
2022-11-08T09:37:37.113Z,4.90
2022-11-08T09:38:37.141Z,3.60
2022-11-08T09:39:37.117Z,5.10
2022-11-08T09:40:37.119Z,3.70
2022-11-08T09:41:37.095Z,4.40
2022-11-08T09:42:37.149Z,4.30
2022-11-08T09:43:37.092Z,4.40
2022-11-08T09:44:37.073Z,5.10
2022-11-08T09:45:37.067Z,3.90
2022-11-08T09:46:37.047Z,6.20
2022-11-08T09:47:37.923Z,5.70
2022-11-08T09:48:37.056Z,3.70
2022-11-08T09:49:37.038Z,2.90
2022-11-08T09:50:37.047Z,5.60
2022-11-08T09:51:37.711Z,2.90
2022-11-08T09:52:37.020Z,3.00
2022-11-08T09:53:37.072Z,2.70
2022-11-08T09:54:37.001Z,3.60
2022-11-08T09:55:36.985Z,4.00
2022-11-08T09:56:36.999Z,3.60
2022-11-08T09:57:36.963Z,3.20
2022-11-08T09:58:36.972Z,3.40
2022-11-08T09:59:36.931Z,2.70
2022-11-08T10:00:37.029Z,3.50
2022-11-08T10:01:36.991Z,3.50
2022-11-08T10:02:36.936Z,5.30
2022-11-08T10:03:36.964Z,5.60
2022-11-08T10:04:36.906Z,3.80
2022-11-08T10:05:37.901Z,3.70
2022-11-08T10:06:36.988Z,3.80
2022-11-08T10:07:36.889Z,4.30
2022-11-08T10:08:36.890Z,3.00
2022-11-08T10:09:36.982Z,6.30
2022-11-08T10:10:36.877Z,3.10
2022-11-08T10:11:36.882Z,3.90
2022-11-08T10:12:36.872Z,6.50
2022-11-08T10:13:36.874Z,7.50
2022-11-08T10:14:42.889Z,15.20
2022-11-08T10:15:38.814Z,10.00
2022-11-08T10:16:36.839Z,8.10
2022-11-08T10:17:36.821Z,6.40
2022-11-08T10:18:36.795Z,5.10
2022-11-08T10:19:36.810Z,5.80
2022-11-08T10:20:36.804Z,3.20
2022-11-08T10:21:36.781Z,2.40
2022-11-08T10:22:36.874Z,2.70
2022-11-08T10:23:36.808Z,3.70
2022-11-08T10:24:36.746Z,2.70
2022-11-08T10:25:36.807Z,2.10
2022-11-08T10:26:36.747Z,2.80
2022-11-08T10:27:36.726Z,2.60
2022-11-08T10:28:36.724Z,4.20
2022-11-08T10:29:36.735Z,4.60
2022-11-08T10:30:36.743Z,2.80
2022-11-08T10:31:36.710Z,2.80
2022-11-08T10:32:36.693Z,3.40
2022-11-08T10:33:36.697Z,3.30
2022-11-08T10:34:36.711Z,3.70
2022-11-08T10:35:36.667Z,2.90
2022-11-08T10:36:36.673Z,4.00
2022-11-08T10:37:36.633Z,4.40
2022-11-08T10:38:36.678Z,4.10
2022-11-08T10:39:36.642Z,4.10
2022-11-08T10:40:36.654Z,3.10
2022-11-08T10:41:36.616Z,4.60
2022-11-08T10:42:36.632Z,3.00
2022-11-08T10:43:36.632Z,3.00
2022-11-08T10:44:36.596Z,5.10
2022-11-08T10:45:36.583Z,4.70
2022-11-08T10:46:36.593Z,3.80
2022-11-08T10:47:36.575Z,3.30
2022-11-08T10:48:37.620Z,2.50
2022-11-08T10:49:36.560Z,2.70
2022-11-08T10:50:36.551Z,3.30
2022-11-08T10:51:36.538Z,2.50
2022-11-08T10:52:36.546Z,4.20
2022-11-08T10:53:37.400Z,2.20
2022-11-08T10:54:36.520Z,2.60
2022-11-08T10:55:36.516Z,1.70
2022-11-08T10:56:37.745Z,3.20
2022-11-08T10:57:36.572Z,2.40
2022-11-08T10:58:36.491Z,2.80
2022-11-08T10:59:36.490Z,3.20
2022-11-08T11:00:36.463Z,1.50
2022-11-08T11:01:36.492Z,2.90
2022-11-08T11:02:36.476Z,5.40
2022-11-08T11:03:36.465Z,3.80
2022-11-08T11:04:36.443Z,1.90
2022-11-08T11:05:36.436Z,3.30
2022-11-08T11:06:36.568Z,2.70
2022-11-08T11:07:36.426Z,2.40
2022-11-08T11:08:36.437Z,1.40
2022-11-08T11:09:36.401Z,3.30
2022-11-08T11:10:36.384Z,3.50
2022-11-08T11:11:36.418Z,3.20
2022-11-08T11:12:36.370Z,3.30
2022-11-08T11:13:36.516Z,2.30
2022-11-08T11:14:36.370Z,3.50
2022-11-08T11:15:36.362Z,3.30
2022-11-08T11:16:36.376Z,1.80
2022-11-08T11:17:39.118Z,2.30
2022-11-08T11:18:36.382Z,3.20
2022-11-08T11:19:36.338Z,2.30
2022-11-08T11:20:36.307Z,2.00
2022-11-08T11:21:36.330Z,2.50
2022-11-08T11:22:36.298Z,3.90
2022-11-08T11:23:36.336Z,2.60
2022-11-08T11:24:36.289Z,2.60
2022-11-08T11:25:36.303Z,3.80
2022-11-08T11:26:36.271Z,1.80
2022-11-08T11:27:36.289Z,3.90
2022-11-08T11:28:36.293Z,2.90
2022-11-08T11:29:36.253Z,4.60
2022-11-08T11:30:36.257Z,4.60
2022-11-08T11:31:36.249Z,4.80
2022-11-08T11:32:36.299Z,4.30
2022-11-08T11:33:36.329Z,2.00
2022-11-08T11:34:36.265Z,1.90
2022-11-08T11:35:36.210Z,2.70
2022-11-08T11:36:36.232Z,2.60
2022-11-08T11:37:36.181Z,4.60
2022-11-08T11:38:36.215Z,2.80
2022-11-08T11:39:36.160Z,4.60
2022-11-08T11:40:36.204Z,2.50
2022-11-08T11:41:36.217Z,2.90
2022-11-08T11:42:45.759Z,3.80
2022-11-08T11:43:38.148Z,3.80
2022-11-08T11:44:36.135Z,2.70
2022-11-08T11:45:36.191Z,1.70
2022-11-08T11:46:41.194Z,2.90
2022-11-08T11:47:38.096Z,2.20
2022-11-08T11:48:36.112Z,2.80
2022-11-08T11:49:36.141Z,3.20
2022-11-08T11:50:36.152Z,3.50
2022-11-08T11:51:36.166Z,6.10
2022-11-08T11:52:36.073Z,4.70
2022-11-08T11:53:36.984Z,2.70
2022-11-08T11:54:36.900Z,2.60
2022-11-08T11:55:36.046Z,2.50
2022-11-08T11:56:36.044Z,2.20
2022-11-08T11:57:37.036Z,2.30
2022-11-08T11:58:36.005Z,2.50
2022-11-08T11:59:36.015Z,3.60
2022-11-08T12:00:36.014Z,2.60
2022-11-08T12:01:36.048Z,4.30
2022-11-08T12:02:36.064Z,3.10
2022-11-08T12:03:36.024Z,2.10
2022-11-08T12:04:35.987Z,3.70
2022-11-08T12:05:36.946Z,1.50
2022-11-08T12:06:35.993Z,2.70
2022-11-08T12:07:35.952Z,2.80
2022-11-08T12:08:35.934Z,2.40
2022-11-08T12:09:35.964Z,2.90
2022-11-08T12:10:36.113Z,2.40
2022-11-08T12:11:35.957Z,1.20
2022-11-08T12:12:35.926Z,3.00
2022-11-08T12:13:35.938Z,3.10
2022-11-08T12:14:35.994Z,2.30
2022-11-08T12:15:35.985Z,3.80
2022-11-08T12:16:35.875Z,5.20
2022-11-08T12:17:35.907Z,4.10
2022-11-08T12:18:44.470Z,3.00
2022-11-08T12:19:37.956Z,3.00
2022-11-08T12:20:35.850Z,4.10
2022-11-08T12:21:35.905Z,2.40
2022-11-08T12:22:35.827Z,2.10
2022-11-08T12:23:35.863Z,2.70
2022-11-08T12:24:35.850Z,1.60
2022-11-08T12:25:35.834Z,1.30
2022-11-08T12:26:36.439Z,4.70
2022-11-08T12:27:36.449Z,2.10
2022-11-08T12:28:41.149Z,2.60
2022-11-08T12:29:37.851Z,2.60
2022-11-08T12:30:35.799Z,3.50
2022-11-08T12:31:35.843Z,2.00
2022-11-08T12:32:35.775Z,2.90
2022-11-08T12:33:35.779Z,1.80
2022-11-08T12:34:35.788Z,2.30
2022-11-08T12:35:35.754Z,1.90
2022-11-08T12:36:36.497Z,2.10
2022-11-08T12:37:35.745Z,3.50
2022-11-08T12:38:35.732Z,1.30
2022-11-08T12:39:35.700Z,1.60
2022-11-08T12:40:35.722Z,2.50
2022-11-08T12:41:35.704Z,3.40
2022-11-08T12:42:35.700Z,4.40
2022-11-08T12:43:35.719Z,1.50
2022-11-08T12:44:35.706Z,4.60
2022-11-08T12:45:35.722Z,2.00
2022-11-08T12:46:35.653Z,2.30
2022-11-08T12:47:35.659Z,3.20
2022-11-08T12:48:35.645Z,4.10
2022-11-08T12:49:35.637Z,3.30
2022-11-08T12:50:35.682Z,3.00
2022-11-08T12:51:35.641Z,4.70
2022-11-08T12:52:35.690Z,2.80
2022-11-08T12:53:35.637Z,3.10
2022-11-08T12:54:35.605Z,3.20
2022-11-08T12:55:35.637Z,2.10
2022-11-08T12:56:35.596Z,3.00
2022-11-08T12:57:35.592Z,3.70
2022-11-08T12:58:35.611Z,4.40
2022-11-08T12:59:35.592Z,4.40
2022-11-08T13:00:35.621Z,3.70
2022-11-08T13:01:35.590Z,2.40
2022-11-08T13:02:35.652Z,2.50
2022-11-08T13:03:35.540Z,2.30
2022-11-08T13:04:36.459Z,2.40
2022-11-08T13:05:35.604Z,8.30
2022-11-08T13:06:35.554Z,6.20
2022-11-08T13:07:35.552Z,6.70
2022-11-08T13:08:35.513Z,5.40
2022-11-08T13:09:35.479Z,4.10
2022-11-08T13:10:35.516Z,5.20
2022-11-08T13:11:35.474Z,3.10
2022-11-08T13:12:35.535Z,5.10
2022-11-08T13:13:35.520Z,5.50
2022-11-08T13:14:40.979Z,7.00
2022-11-08T13:15:37.585Z,4.20
2022-11-08T13:16:35.444Z,6.70
2022-11-08T13:17:35.458Z,8.20
2022-11-08T13:18:35.452Z,5.50
2022-11-08T13:19:35.431Z,8.20
2022-11-08T13:20:35.501Z,5.80
2022-11-08T13:21:35.466Z,4.40
2022-11-08T13:22:35.409Z,6.00
2022-11-08T13:23:35.404Z,4.40
2022-11-08T13:24:44.355Z,2.80
2022-11-08T13:25:37.373Z,4.00
2022-11-08T13:26:36.410Z,10.80
2022-11-08T13:27:35.344Z,9.60
2022-11-08T13:28:36.375Z,5.10
2022-11-08T13:29:35.329Z,6.90
2022-11-08T13:30:35.362Z,7.40
2022-11-08T13:31:35.333Z,7.00
2022-11-08T13:32:35.315Z,5.50
2022-11-08T13:33:35.346Z,5.00
2022-11-08T13:34:35.311Z,6.70
2022-11-08T13:35:36.003Z,6.10
2022-11-08T13:36:35.312Z,6.60
2022-11-08T13:37:35.337Z,5.60
2022-11-08T13:38:35.876Z,6.70
2022-11-08T13:39:35.276Z,6.30
2022-11-08T13:40:36.288Z,6.30
2022-11-08T13:41:35.260Z,8.30
2022-11-08T13:42:35.855Z,5.20
2022-11-08T13:43:35.268Z,4.90
2022-11-08T13:44:35.779Z,7.30
2022-11-08T13:45:35.265Z,3.40
2022-11-08T13:46:35.216Z,5.40
2022-11-08T13:47:35.213Z,5.20
2022-11-08T13:48:35.245Z,5.50
2022-11-08T13:49:35.292Z,3.80
2022-11-08T13:50:35.211Z,2.40
2022-11-08T13:51:35.249Z,6.40
2022-11-08T13:52:35.194Z,3.60
2022-11-08T13:53:35.880Z,5.10
2022-11-08T13:54:35.149Z,2.30
2022-11-08T13:55:35.181Z,3.60
2022-11-08T13:56:35.135Z,3.80
2022-11-08T13:57:35.251Z,5.90
2022-11-08T13:58:35.125Z,6.60
2022-11-08T13:59:35.210Z,7.90
2022-11-08T14:00:35.160Z,5.70
2022-11-08T14:01:38.702Z,2.60
2022-11-08T14:02:36.130Z,6.00
2022-11-08T14:03:35.144Z,3.40
2022-11-08T14:04:35.149Z,4.50
2022-11-08T14:05:35.091Z,6.20
2022-11-08T14:06:35.092Z,5.70
2022-11-08T14:07:35.052Z,4.50
2022-11-08T14:08:35.045Z,3.80
2022-11-08T14:09:35.058Z,5.00
2022-11-08T14:10:35.073Z,5.10
2022-11-08T14:11:35.033Z,6.40
2022-11-08T14:12:35.049Z,5.30
2022-11-08T14:13:35.052Z,6.60
2022-11-08T14:15:06.923Z,10.30
2022-11-08T14:15:35.024Z,6.80
2022-11-08T14:16:35.000Z,3.60
2022-11-08T14:17:34.996Z,2.90
2022-11-08T14:18:35.067Z,6.10
2022-11-08T14:19:34.975Z,4.70
2022-11-08T14:20:35.006Z,7.10
2022-11-08T14:21:35.020Z,3.70
2022-11-08T14:22:34.953Z,4.10
2022-11-08T14:23:34.947Z,4.80
2022-11-08T14:24:34.928Z,4.80
2022-11-08T14:25:34.998Z,5.40
2022-11-08T14:26:34.931Z,12.00
2022-11-08T14:27:34.915Z,9.20
2022-11-08T14:28:34.924Z,7.60
2022-11-08T14:29:34.887Z,6.10
2022-11-08T14:30:34.916Z,10.10
2022-11-08T14:31:34.939Z,6.50
2022-11-08T14:32:34.885Z,7.10
2022-11-08T14:33:34.912Z,2.80
2022-11-08T14:34:34.856Z,2.90
2022-11-08T14:35:34.899Z,5.40
2022-11-08T14:36:34.854Z,3.10
2022-11-08T14:37:34.821Z,4.00
2022-11-08T14:38:34.851Z,3.10
2022-11-08T14:39:34.831Z,5.90
2022-11-08T14:40:34.813Z,6.10
2022-11-08T14:41:34.845Z,3.90
2022-11-08T14:42:34.831Z,9.00
2022-11-08T14:43:34.821Z,5.90
2022-11-08T14:44:34.774Z,8.90
2022-11-08T14:45:34.780Z,12.60
2022-11-08T14:46:34.816Z,8.20
2022-11-08T14:47:34.797Z,8.30
2022-11-08T14:48:34.792Z,7.50
2022-11-08T14:49:35.491Z,4.20
2022-11-08T14:50:34.759Z,6.70
2022-11-08T14:51:34.740Z,7.00
2022-11-08T14:52:34.806Z,5.40
2022-11-08T14:53:34.718Z,4.10
2022-11-08T14:54:34.716Z,7.00
2022-11-08T14:55:34.689Z,7.00
2022-11-08T14:56:34.723Z,5.90
2022-11-08T14:57:34.690Z,10.60
2022-11-08T14:58:34.775Z,8.50
2022-11-08T14:59:34.663Z,7.70
2022-11-08T15:00:35.647Z,6.80
2022-11-08T15:01:34.737Z,5.90
2022-11-08T15:02:34.650Z,12.30
2022-11-08T15:03:34.669Z,22.90
2022-11-08T15:04:34.624Z,22.20
2022-11-08T15:05:34.627Z,9.90
2022-11-08T15:06:34.688Z,8.60
2022-11-08T15:07:34.601Z,12.90
2022-11-08T15:08:34.628Z,11.70
2022-11-08T15:09:34.605Z,13.70
2022-11-08T15:10:34.598Z,21.50
2022-11-08T15:11:34.617Z,13.50
2022-11-08T15:12:34.570Z,13.90
2022-11-08T15:13:34.575Z,11.60
2022-11-08T15:14:34.547Z,8.70
2022-11-08T15:15:34.596Z,9.10
2022-11-08T15:16:34.551Z,7.30
2022-11-08T15:17:34.621Z,8.30
2022-11-08T15:18:34.555Z,5.60
2022-11-08T15:19:34.501Z,7.10
2022-11-08T15:20:34.545Z,5.60
2022-11-08T15:21:34.505Z,5.30
2022-11-08T15:22:34.528Z,5.20
2022-11-08T15:23:34.516Z,3.90
2022-11-08T15:24:34.510Z,4.40
2022-11-08T15:25:34.518Z,5.90
2022-11-08T15:26:34.460Z,3.30
2022-11-08T15:27:34.482Z,7.20
2022-11-08T15:28:34.441Z,4.50
2022-11-08T15:29:34.477Z,4.50
2022-11-08T15:30:34.432Z,5.70
2022-11-08T15:31:34.447Z,5.50
2022-11-08T15:32:34.451Z,5.80
2022-11-08T15:33:34.415Z,4.80
2022-11-08T15:34:34.452Z,3.00
2022-11-08T15:35:34.520Z,5.50
2022-11-08T15:36:34.368Z,3.80
2022-11-08T15:37:34.371Z,6.30
2022-11-08T15:38:34.354Z,4.60
2022-11-08T15:39:34.398Z,7.30
2022-11-08T15:40:34.337Z,3.90
2022-11-08T15:41:35.400Z,3.30
2022-11-08T15:42:34.366Z,6.30
2022-11-08T15:43:34.324Z,6.60
2022-11-08T15:44:34.317Z,5.60
2022-11-08T15:45:34.340Z,6.20
2022-11-08T15:46:34.392Z,7.30
2022-11-08T15:47:34.307Z,44.20
2022-11-08T15:48:35.326Z,19.70
2022-11-08T15:49:34.992Z,8.50
2022-11-08T15:50:34.283Z,7.40
2022-11-08T15:51:34.304Z,4.70
2022-11-08T15:52:34.279Z,7.10
2022-11-08T15:53:34.286Z,6.00
2022-11-08T15:54:34.260Z,4.40
2022-11-08T15:55:34.222Z,4.50
2022-11-08T15:56:34.250Z,3.60
2022-11-08T15:57:34.260Z,3.90
2022-11-08T15:58:34.256Z,3.80
2022-11-08T15:59:34.213Z,4.00
2022-11-08T16:00:34.224Z,5.50
2022-11-08T16:01:39.846Z,4.40
2022-11-08T16:02:36.213Z,3.90
2022-11-08T16:03:34.195Z,4.00
2022-11-08T16:04:34.172Z,5.70
2022-11-08T16:05:34.197Z,6.80
2022-11-08T16:06:34.208Z,5.20
2022-11-08T16:07:34.195Z,6.90
2022-11-08T16:08:34.180Z,5.60
2022-11-08T16:09:34.116Z,6.70
2022-11-08T16:10:34.248Z,7.00
2022-11-08T16:11:34.123Z,7.90
2022-11-08T16:12:34.130Z,7.20
2022-11-08T16:13:34.210Z,11.20
2022-11-08T16:14:34.136Z,7.70
2022-11-08T16:15:34.144Z,9.70
2022-11-08T16:16:35.187Z,12.90
2022-11-08T16:17:35.075Z,8.10
2022-11-08T16:18:34.072Z,7.40
2022-11-08T16:19:34.104Z,6.20
2022-11-08T16:20:34.108Z,10.90
2022-11-08T16:21:34.056Z,5.50
2022-11-08T16:22:34.030Z,12.90
2022-11-08T16:23:34.049Z,7.00
2022-11-08T16:24:34.045Z,5.20
2022-11-08T16:25:34.034Z,4.50
2022-11-08T16:26:34.079Z,3.20
2022-11-08T16:27:34.541Z,6.20
2022-11-08T16:28:33.994Z,4.30
2022-11-08T16:29:34.077Z,3.20
2022-11-08T16:30:34.010Z,3.50
2022-11-08T16:31:34.045Z,3.90
2022-11-08T16:32:33.998Z,6.30
2022-11-08T16:33:34.003Z,5.60
2022-11-08T16:34:35.031Z,7.90
2022-11-08T16:35:33.935Z,8.00
2022-11-08T16:36:34.016Z,9.70
2022-11-08T16:37:33.984Z,7.10
2022-11-08T16:38:33.956Z,9.10
2022-11-08T16:39:33.975Z,7.10
2022-11-08T16:40:33.982Z,6.40
2022-11-08T16:41:37.629Z,8.20
2022-11-08T16:42:34.906Z,9.80
2022-11-08T16:43:33.918Z,6.60
2022-11-08T16:44:33.911Z,11.50
2022-11-08T16:46:03.026Z,8.80
2022-11-08T16:46:35.883Z,7.90
2022-11-08T16:47:33.893Z,9.60
2022-11-08T16:48:33.919Z,11.20
2022-11-08T16:49:33.946Z,8.50
2022-11-08T16:50:33.851Z,7.50
2022-11-08T16:51:33.817Z,8.90
2022-11-08T16:52:33.906Z,8.00
2022-11-08T16:53:33.833Z,11.10
2022-11-08T16:54:33.853Z,16.60
2022-11-08T16:55:33.802Z,37.60
2022-11-08T16:56:33.814Z,15.60
2022-11-08T16:57:35.247Z,11.30
2022-11-08T16:58:34.778Z,34.40
2022-11-08T16:59:33.792Z,36.00
2022-11-08T17:00:33.889Z,32.40
2022-11-08T17:01:33.791Z,20.60
2022-11-08T17:02:33.746Z,16.80
2022-11-08T17:03:33.740Z,16.30
2022-11-08T17:04:33.786Z,10.20
2022-11-08T17:05:33.729Z,8.00
2022-11-08T17:06:33.833Z,8.40
2022-11-08T17:07:33.733Z,8.30
2022-11-08T17:08:33.706Z,12.90
2022-11-08T17:09:33.695Z,10.80